CLT weather

Charlotte Douglas International Airport
Charlotte, North Carolina, United States

Public forecast

Using degrees Fahrenheit for public forecast. Weather courtesy of forecast.io.

Current aviation weather report (METAR) for Charlotte Douglas International Airport

Retrieved 2020/08/03 17:42 UTC (0 seconds ago):

KCLT 031742Z 10010KT 10SM FEW015 SCT035 BKN110 BKN250 25/22 A3002 RMK AO2 LTG DSNT N-E RAB1658E32 TSE26 TS MOV N P0015 T02500222

Aviation forecast (TAF) for Charlotte Douglas International Airport

Retrieved 2020/08/03 12:45 UTC (5 hours ago):

TAF KCLT 031140Z 0312/0418 35005KT P6SM FEW020 BKN060 FM031300 12005KT P6SM BKN060 FM031700 13006KT P6SM -SHRA SCT040 BKN050 TEMPO 0318/0322 4SM TSRA BR OVC040CB FM040300 04008G16KT P6SM VCSH OVC027 PROB30 0403/0407 4SM -SHRA BR FM040900 01007KT P6SM SCT035